Share

Ashton, SD

Aberdeen Regional (KABR) Elev 1299 ft | 45.44 °N, 98.41 °W | Change Station
Active Advisory: Wind Advisory Active Notice: Local Storm Report

Current weather conditions updated 43 minutes ago

Overcast
Overcast
35 °F
Feels Like 26 °F
N
13
Wind Variable Wind from East
Sunrise 6:44 AM
Sunset 8:23 PM
Moon Waning Gibbous

Today is forecast to be Much Warmer than yesterday.

Pressure 30.20 in
Visibility 10.0 miles
Clouds Scattered Clouds 6500 ft
Overcast 8500 ft
Windchill 26 °F
Dew Point 19 °F
Humidity 52%
Rainfall 0.00 in
Snow Depth Not available.
UV 0 out of 16
Pollen 7.60 out of 12
Air Quality Not available.
Flu Activity Sporadic
METAR KABR 180953Z AUTO 10011KT 10SM SCT065 OVC085 02/M07 A3016 RMK AO2 SLP225 T00171072

More Conditions Fewer Conditions

Pressure 30.20 in
Visibility 10.0 miles
Clouds Scattered Clouds 6500 ft
Overcast 8500 ft
Windchill 26 °F
Dew Point 19 °F
Humidity 52%
Rainfall 0.00 in
Snow Depth Not available.
UV 0 out of 16
Pollen 7.60 out of 12
Air Quality Not available.
Flu Activity Sporadic
METAR KABR 180953Z AUTO 10011KT 10SM SCT065 OVC085 02/M07 A3016 RMK AO2 SLP225 T00171072

More Conditions Fewer Conditions

10-Day Forecast

Almanac

Astronomy

Apr. 18, 2014 Rise Set
Actual Time 6:44 AM CDT 8:23 PM CDT
Civil Twilight 6:13 AM CDT 8:54 PM CDT
Nautical Twilight 5:35 AM CDT 9:32 PM CDT
Astronomical Twilight 4:54 AM CDT 10:13 PM CDT
Moon No Moon Rise 9:01 AM CDT
Length of Visible Light 14h 41m
Length of Day
13h 39m
Tomorrow will be 2m 58s longer.
Waning Gibbous, 89% of the Moon is Illuminated
Today
Waning Gibbous
Apr 22
Last Quarter
Apr 29
New
May 6
First Quarter
May 14
Full

Today's Extremes

State Highs State Lows

Community

  • SUNRISE THROUGH THE TREES.
    SUNRISE THROUGH THE TREES.
  • Dog Wood Blossoms
    Dog Wood Blossoms
  • Morning Light
    Morning Light
  • New Day
    New Day
  • Lake Michigan Sunrise
    Lake Michigan Sunrise

WunderPhotos

Upload Photos

1,702,306 photos uploaded!

Nearby

Snow Depth

Station Depth Elevation
North Rapid Creek 22 in 6130 ft
Blind Park 24 in 6890 ft

Coastal Water Temperatures

Place Temperature
No Stations Reporting

Earthquake Activity

City Distance Mag. Time & Date
No recent earthquake activity has been reported nearby.
Minimum magnitude displayed is 2.5.

Nearby Weather Stations

There are no personal weather stations in this area.

What do you think?

We're not finished. Please let us know what you like, what you don't like, and what you are still missing.